Time;durP1;ratioP1;P1;durP2;ratioP2;P2;SDS_P1;SDS_P2;PMS_P1;PMS_P2;Temp;Humidity;BMP_temperature;BMP_pressure;BME280_temperature;BME280_humidity;BME280_pressure;Samples;Min_cycle;Max_cycle;Signal;HPM_P1;HPM_P2
2022/03/11 00:01:10;;;;;;;0.37;0.37;;;9.30;99.90;9.40;101588.00;;;;5115301;28;20190;-69
2022/03/11 00:03:35;;;;;;;1.37;1.37;;;9.30;99.90;9.10;101599.00;;;;5115210;28;20184;-69
2022/03/11 00:06:07;;;;;;;2.63;0.57;;;9.20;99.90;9.30;101585.00;;;;5097906;28;20201;-70
2022/03/11 00:08:35;;;;;;;1.03;0.90;;;9.20;99.90;9.10;101584.00;;;;5114965;28;20221;-70
2022/03/11 00:11:05;;;;;;;1.17;1.17;;;9.10;99.90;9.40;101603.00;;;;5114881;28;20539;-70
2022/03/11 00:13:35;;;;;;;2.40;1.30;;;9.20;99.90;9.30;101577.00;;;;5114936;28;20244;-70
2022/03/11 00:16:07;;;;;;;0.40;0.40;;;9.10;99.90;9.20;101587.00;;;;5115028;28;20177;-70
2022/03/11 00:18:41;;;;;;;3.03;2.83;;;9.10;99.90;9.30;101573.00;;;;5114784;28;20173;-70
2022/03/11 00:21:12;;;;;;;1.40;1.37;;;9.10;99.90;9.10;101522.00;;;;5115002;28;20184;-70
2022/03/11 00:23:43;;;;;;;2.57;2.37;;;8.90;99.90;8.80;101573.00;;;;5116011;28;20174;-71
2022/03/11 00:26:10;;;;;;;1.33;1.27;;;8.80;99.90;8.80;101560.00;;;;5115755;28;20172;-70
2022/03/11 00:28:39;;;;;;;1.83;1.83;;;8.70;99.90;9.00;101559.00;;;;5097682;28;20224;-69
2022/03/11 00:31:10;;;;;;;2.00;0.80;;;8.80;99.90;9.00;101504.00;;;;5114504;28;20181;-69
2022/03/11 00:33:41;;;;;;;4.43;2.20;;;8.90;99.90;8.60;101554.00;;;;5097498;28;20192;-69
2022/03/11 00:36:10;;;;;;;0.57;0.53;;;8.70;99.90;8.90;101551.00;;;;5097877;28;20544;-69
2022/03/11 00:38:38;;;;;;;4.57;1.60;;;8.80;99.90;8.80;101549.00;;;;5097847;28;20188;-69
2022/03/11 00:41:09;;;;;;;0.77;0.77;;;8.70;99.90;8.90;101544.00;;;;5114495;28;20183;-69
2022/03/11 00:43:38;;;;;;;2.43;2.23;;;8.80;99.90;8.80;101545.00;;;;5114560;28;20205;-70
2022/03/11 00:46:04;;;;;;;6.13;2.33;;;8.70;99.90;8.90;101530.00;;;;5114389;28;20254;-70
2022/03/11 00:48:35;;;;;;;2.80;1.67;;;8.80;99.90;8.80;101532.00;;;;5113937;28;20227;-69
2022/03/11 00:51:06;;;;;;;2.73;2.33;;;8.80;99.90;8.60;101530.00;;;;5097841;28;20642;-69
2022/03/11 00:53:37;;;;;;;6.07;2.00;;;8.70;99.90;8.70;101535.00;;;;5113914;28;20635;-69
2022/03/11 00:56:08;;;;;;;4.10;2.93;;;8.80;99.90;8.90;101530.00;;;;5113556;28;20187;-70
2022/03/11 00:58:34;;;;;;;0.80;0.77;;;8.70;99.90;8.90;101517.00;;;;5114168;28;20244;-69
2022/03/11 01:01:02;;;;;;;2.50;0.80;;;8.80;99.90;8.90;101531.00;;;;5096875;28;20298;-70
2022/03/11 01:03:31;;;;;;;1.60;1.07;;;8.70;99.90;9.00;101523.00;;;;5113746;28;20212;-69
2022/03/11 01:05:57;;;;;;;1.30;1.27;;;8.80;99.90;8.90;101522.00;;;;5113942;28;20176;-70
2022/03/11 01:08:22;;;;;;;0.43;0.43;;;8.70;99.90;8.40;101512.00;;;;5113840;28;20666;-69
2022/03/11 01:10:56;;;;;;;1.43;1.07;;;8.60;99.90;8.20;101519.00;;;;5096640;28;20246;-70
2022/03/11 01:13:24;;;;;;;0.43;0.43;;;8.30;99.90;8.40;101505.00;;;;5113773;28;20181;-70
2022/03/11 01:15:55;;;;;;;2.37;1.30;;;8.30;99.90;8.40;101490.00;;;;5115004;28;20182;-70
2022/03/11 01:18:29;;;;;;;2.43;1.70;;;8.50;99.90;8.50;101497.00;;;;5096880;28;20188;-70
2022/03/11 01:20:58;;;;;;;1.27;0.97;;;8.40;99.90;8.60;101499.00;;;;5113870;28;20180;-70
2022/03/11 01:23:25;;;;;;;2.37;1.70;;;8.40;99.90;8.30;101501.00;;;;5113474;28;20178;-70
2022/03/11 01:25:55;;;;;;;3.23;2.27;;;8.30;99.90;8.30;101488.00;;;;5096557;28;20265;-70
2022/03/11 01:28:28;;;;;;;0.77;0.67;;;8.30;99.90;8.20;101498.00;;;;5114979;28;20535;-69
2022/03/11 01:30:57;;;;;;;1.00;0.80;;;8.30;99.90;8.30;101489.00;;;;5113442;28;20172;-70
2022/03/11 01:33:30;;;;;;;0.50;0.50;;;8.40;99.90;8.10;101491.00;;;;5113276;28;20270;-70
2022/03/11 01:36:01;;;;;;;0.47;0.47;;;8.30;99.90;8.20;101439.00;;;;5096591;28;20596;-70
2022/03/11 01:38:30;;;;;;;1.63;1.53;;;8.20;99.90;8.10;101468.00;;;;5096392;28;20176;-69
2022/03/11 01:40:59;;;;;;;1.33;1.10;;;8.10;99.90;8.20;101497.00;;;;5113394;28;20181;-69
2022/03/11 01:43:42;;;;;;;0.77;0.70;;;8.20;99.90;8.20;101485.00;;;;5096205;28;20216;-70
2022/03/11 01:46:08;;;;;;;1.63;1.53;;;8.10;99.90;8.30;101477.00;;;;5112787;28;20183;-70
2022/03/11 01:48:38;;;;;;;2.27;2.17;;;8.20;99.90;8.40;101474.00;;;;5113447;28;20637;-70
2022/03/11 01:51:06;;;;;;;1.50;1.27;;;8.20;99.90;8.00;101478.00;;;;5113039;28;20206;-69
2022/03/11 01:53:34;;;;;;;1.73;1.13;;;8.20;99.90;8.40;101431.00;;;;5096078;28;20180;-70
2022/03/11 01:56:02;;;;;;;2.23;2.13;;;8.20;99.90;8.20;101465.00;;;;5096352;28;20176;-70
2022/03/11 01:58:31;;;;;;;2.30;1.53;;;8.20;99.90;8.20;101458.00;;;;5114156;28;20258;-69
2022/03/11 02:00:59;;;;;;;0.40;0.40;;;8.20;99.90;7.80;101464.00;;;;5112627;28;20175;-70
2022/03/11 02:03:27;;;;;;;4.53;1.50;;;8.20;99.90;7.90;101456.00;;;;5112742;28;20533;-70
2022/03/11 02:06:02;;;;;;;4.30;2.17;;;8.00;99.90;8.30;101395.00;;;;5113784;28;20202;-70
2022/03/11 02:08:33;;;;;;;0.93;0.77;;;8.10;99.90;8.40;101446.00;;;;5114155;28;20178;-70
2022/03/11 02:10:59;;;;;;;6.80;2.67;;;8.20;99.90;8.10;101441.00;;;;5096218;28;20705;-70
2022/03/11 02:13:58;;;;;;;1.77;1.67;;;8.10;99.90;8.20;101451.00;;;;5113785;28;20618;-70
2022/03/11 02:16:37;;;;;;;1.70;1.30;;;8.10;99.90;8.10;101443.00;;;;5112473;28;20623;-70
2022/03/11 02:19:06;;;;;;;1.43;1.33;;;8.10;99.90;8.60;101440.00;;;;5112699;28;20262;-70
2022/03/11 02:21:43;;;;;;;1.67;1.50;;;8.20;99.90;8.30;101395.00;;;;5114282;28;20180;-71
2022/03/11 02:24:15;;;;;;;0.67;0.57;;;8.20;99.90;8.40;101427.00;;;;5112803;28;20180;-71
2022/03/11 02:26:49;;;;;;;1.60;1.33;;;8.20;99.90;7.90;101424.00;;;;5112648;28;20187;-71
2022/03/11 02:29:17;;;;;;;1.43;0.50;;;8.00;99.90;8.20;101429.00;;;;5095089;28;20187;-70
2022/03/11 02:31:43;;;;;;;1.27;1.27;;;8.00;99.90;8.00;101422.00;;;;5112306;28;20216;-70
2022/03/11 02:34:12;;;;;;;0.97;0.97;;;7.90;99.90;7.70;101433.00;;;;5095510;28;20187;-70
2022/03/11 02:36:43;;;;;;;2.63;2.33;;;7.90;99.90;7.90;101363.00;;;;5095722;28;20187;-70
2022/03/11 02:39:14;;;;;;;0.57;0.57;;;7.80;99.90;7.80;101369.00;;;;5112499;28;20183;-70
2022/03/11 02:41:45;;;;;;;1.50;1.20;;;7.80;99.90;7.90;101362.00;;;;5095656;28;20188;-70
2022/03/11 02:44:15;;;;;;;1.60;1.50;;;7.80;99.90;7.80;101404.00;;;;5112385;28;20222;-70
2022/03/11 02:46:41;;;;;;;1.03;1.03;;;7.80;99.90;7.60;101397.00;;;;5112270;28;20183;-71
2022/03/11 02:49:07;;;;;;;1.07;0.80;;;7.70;99.90;8.20;101401.00;;;;5112255;28;20302;-70
2022/03/11 02:51:39;;;;;;;2.17;1.33;;;7.90;99.90;7.70;101395.00;;;;5112526;28;20249;-71
2022/03/11 02:54:09;;;;;;;0.60;0.60;;;7.70;99.90;7.90;101412.00;;;;5112893;28;20182;-71
2022/03/11 02:56:35;;;;;;;1.77;1.47;;;7.80;99.90;7.40;101401.00;;;;5112317;28;20187;-70
2022/03/11 02:59:04;;;;;;;2.60;1.30;;;7.60;99.90;7.80;101396.00;;;;5095098;28;20190;-70
2022/03/11 03:01:29;;;;;;;0.93;0.93;;;7.70;99.90;7.70;101349.00;;;;5112132;28;20179;-70
2022/03/11 03:03:59;;;;;;;0.63;0.63;;;7.70;99.90;7.80;101343.00;;;;5112303;28;20231;-70
2022/03/11 03:06:26;;;;;;;1.23;1.13;;;7.70;99.90;7.40;101390.00;;;;5112179;28;20171;-70
2022/03/11 03:08:55;;;;;;;4.23;1.87;;;7.60;99.90;7.70;101389.00;;;;5112195;28;20177;-70
2022/03/11 03:11:26;;;;;;;0.67;0.67;;;7.60;99.90;7.60;101383.00;;;;5111925;28;20207;-71
2022/03/11 03:13:52;;;;;;;1.20;1.10;;;7.60;99.90;7.70;101337.00;;;;5111915;28;20176;-71
2022/03/11 03:16:23;;;;;;;0.20;0.20;;;7.60;99.90;8.00;101378.00;;;;5095198;28;20189;-70
2022/03/11 03:18:51;;;;;;;1.87;1.70;;;7.80;99.90;7.60;101381.00;;;;5097308;28;20186;-71
2022/03/11 03:21:21;;;;;;;2.17;2.07;;;7.70;99.90;7.10;101380.00;;;;5116129;28;20268;-70
2022/03/11 03:23:51;;;;;;;0.50;0.50;;;7.40;99.90;7.10;101366.00;;;;5116031;28;20174;-70
2022/03/11 03:26:19;;;;;;;0.23;0.23;;;7.30;99.90;7.50;101375.00;;;;5115705;28;20650;-71
2022/03/11 03:28:48;;;;;;;1.30;1.20;;;7.40;99.90;7.40;101345.00;;;;5115908;28;20190;-70
2022/03/11 03:31:21;;;;;;;0.97;0.97;;;7.50;99.90;7.40;101372.00;;;;5098022;28;20195;-70
2022/03/11 03:33:48;;;;;;;0.87;0.80;;;7.40;99.90;7.40;101367.00;;;;5099612;28;20237;-70
2022/03/11 03:36:15;;;;;;;2.53;2.17;;;7.50;99.90;7.10;101384.00;;;;5099007;28;20517;-70
2022/03/11 03:38:47;;;;;;;1.90;1.80;;;7.30;99.90;7.60;101382.00;;;;5115707;28;20264;-70
2022/03/11 03:41:18;;;;;;;0.67;0.47;;;7.50;99.90;7.20;101380.00;;;;5115740;28;20177;-70
2022/03/11 03:43:46;;;;;;;1.80;1.53;;;7.40;99.90;7.30;101369.00;;;;5099368;28;20187;-70
2022/03/11 03:46:15;;;;;;;0.87;0.87;;;7.40;99.90;7.40;101376.00;;;;5098480;28;20710;-70
2022/03/11 03:48:41;;;;;;;2.77;1.93;;;7.40;99.90;7.50;101357.00;;;;5098904;28;20179;-69
2022/03/11 03:51:09;;;;;;;0.60;0.60;;;7.50;99.90;7.60;101319.00;;;;5098394;28;20518;-69
2022/03/11 03:53:41;;;;;;;3.37;1.40;;;7.50;99.90;7.70;101382.00;;;;5098720;28;20173;-70
2022/03/11 03:56:09;;;;;;;2.83;2.43;;;7.60;99.90;7.80;101360.00;;;;5115175;28;20661;-70
2022/03/11 03:58:41;;;;;;;0.90;0.50;;;7.60;99.90;7.40;101311.00;;;;5099070;28;20513;-70
2022/03/11 04:01:12;;;;;;;4.43;1.03;;;7.50;99.90;7.80;101371.00;;;;5115142;28;20180;-70
2022/03/11 04:03:42;;;;;;;0.73;0.73;;;7.60;99.90;7.80;101358.00;;;;5115214;28;20196;-71
2022/03/11 04:06:11;;;;;;;0.70;0.70;;;7.60;99.90;7.70;101356.00;;;;5098262;28;20272;-70
2022/03/11 04:08:40;;;;;;;2.33;1.90;;;7.60;99.90;7.60;101348.00;;;;5115357;28;20308;-70
2022/03/11 04:11:06;;;;;;;1.60;1.17;;;7.60;99.90;7.50;101334.00;;;;5098194;28;20184;-70
2022/03/11 04:13:37;;;;;;;2.10;1.93;;;7.50;99.90;7.20;101364.00;;;;5097886;28;20526;-70
2022/03/11 04:16:05;;;;;;;1.23;1.20;;;7.30;99.90;7.40;101356.00;;;;5098124;28;20670;-70
2022/03/11 04:18:34;;;;;;;3.80;1.87;;;7.30;99.90;7.50;101335.00;;;;5115107;28;20577;-68
2022/03/11 04:21:04;;;;;;;1.20;0.97;;;7.30;99.90;7.00;101350.00;;;;5115073;28;20174;-68
2022/03/11 04:23:30;;;;;;;3.93;0.87;;;7.30;99.90;7.20;101314.00;;;;5114710;28;20178;-70
2022/03/11 04:25:59;;;;;;;2.30;1.37;;;7.20;99.90;7.20;101356.00;;;;5097348;28;20594;-69
2022/03/11 04:28:36;;;;;;;2.13;2.03;;;7.30;99.90;7.00;101348.00;;;;5114729;28;20189;-69
2022/03/11 04:31:12;;;;;;;0.60;0.60;;;7.10;99.90;7.40;101343.00;;;;5097662;28;20254;-69
2022/03/11 04:33:40;;;;;;;2.10;1.90;;;7.20;99.90;7.40;101341.00;;;;5114421;28;20226;-69
2022/03/11 04:36:07;;;;;;;0.30;0.30;;;7.30;99.90;7.10;101352.00;;;;5116111;28;20721;-69
2022/03/11 04:38:34;;;;;;;0.30;0.30;;;7.20;99.90;7.20;101347.00;;;;5114888;28;20182;-69
2022/03/11 04:41:01;;;;;;;0.50;0.50;;;7.30;99.90;7.30;101344.00;;;;5097170;28;20187;-69
2022/03/11 04:43:29;;;;;;;0.80;0.80;;;7.30;99.90;7.20;101334.00;;;;5097027;28;20191;-69
2022/03/11 04:46:01;;;;;;;1.40;1.30;;;7.30;99.90;7.20;101332.00;;;;5113762;28;20203;-69
2022/03/11 04:48:31;;;;;;;0.60;0.60;;;7.20;99.90;7.20;101334.00;;;;5097795;28;20545;-68
2022/03/11 04:51:02;;;;;;;2.23;1.57;;;7.30;99.90;7.30;101283.00;;;;5114697;28;20230;-69
2022/03/11 04:53:34;;;;;;;0.87;0.87;;;7.30;99.90;7.30;101326.00;;;;5115458;28;20341;-69
2022/03/11 04:56:02;;;;;;;0.50;0.50;;;7.40;99.90;7.50;101336.00;;;;5096889;28;20225;-69
2022/03/11 04:58:28;;;;;;;1.80;1.03;;;7.30;99.90;7.10;101327.00;;;;5097072;28;20189;-68
2022/03/11 05:00:56;;;;;;;3.30;1.80;;;7.30;99.90;7.40;101315.00;;;;5114136;28;20269;-69
2022/03/11 05:03:24;;;;;;;1.20;1.10;;;7.40;99.90;7.60;101270.00;;;;5113971;28;20189;-69
2022/03/11 05:05:53;;;;;;;4.13;1.80;;;7.40;99.90;7.10;101284.00;;;;5097248;28;20699;-69
2022/03/11 05:08:21;;;;;;;1.20;1.10;;;7.30;99.90;7.40;101307.00;;;;5113572;28;20180;-68
2022/03/11 05:10:47;;;;;;;1.57;1.47;;;7.40;99.90;7.20;101250.00;;;;5097046;28;20226;-69
2022/03/11 05:13:17;;;;;;;0.50;0.50;;;7.40;99.90;7.30;101305.00;;;;5113581;28;20242;-69
2022/03/11 05:15:45;;;;;;;3.07;1.33;;;7.40;99.90;7.10;101291.00;;;;5113666;28;20157;-69
2022/03/11 05:18:16;;;;;;;1.40;1.30;;;7.30;99.90;7.50;101295.00;;;;5113628;28;20543;-69
2022/03/11 05:20:47;;;;;;;1.60;1.50;;;7.40;99.90;7.60;101304.00;;;;5097342;28;20183;-69
2022/03/11 05:23:18;;;;;;;4.60;1.97;;;7.50;99.90;7.30;101160.00;;;;5096445;28;20645;-69
2022/03/11 05:25:47;;;;;;;0.20;0.20;;;7.40;99.90;7.50;101306.00;;;;5097050;28;20201;-68
2022/03/11 05:28:15;;;;;;;0.53;0.53;;;7.50;99.90;7.50;101300.00;;;;5114904;28;20173;-69
2022/03/11 05:30:46;;;;;;;0.33;0.33;;;7.50;99.90;7.50;101289.00;;;;5113527;28;20604;-69
2022/03/11 05:33:12;;;;;;;2.80;1.30;;;7.40;99.90;7.60;101236.00;;;;5113503;28;20219;-69
2022/03/11 05:35:41;;;;;;;0.27;0.27;;;7.50;99.90;7.70;101298.00;;;;5096238;28;20539;-69
2022/03/11 05:38:09;;;;;;;0.30;0.30;;;7.60;99.90;7.50;101309.00;;;;5113245;28;20185;-69
2022/03/11 05:40:36;;;;;;;2.53;2.33;;;7.60;99.90;7.80;101288.00;;;;5113093;28;20579;-69
2022/03/11 05:43:05;;;;;;;1.60;1.33;;;7.60;99.90;7.40;101243.00;;;;5096192;28;20298;-68
2022/03/11 05:45:36;;;;;;;4.13;2.90;;;7.50;99.90;7.30;101293.00;;;;5113197;28;20605;-69
2022/03/11 05:48:01;;;;;;;1.47;0.87;;;7.40;99.90;7.30;101304.00;;;;5114694;28;20240;-69
2022/03/11 05:50:30;;;;;;;1.57;1.47;;;7.50;99.90;7.40;101300.00;;;;5112983;28;20179;-69
2022/03/11 05:53:03;;;;;;;1.73;1.63;;;7.40;99.90;7.20;101303.00;;;;5095763;28;20658;-70
2022/03/11 05:55:29;;;;;;;0.27;0.27;;;7.40;99.90;7.40;101303.00;;;;5113292;28;20183;-70
2022/03/11 05:57:57;;;;;;;0.53;0.53;;;7.50;99.90;7.20;101306.00;;;;5113065;28;20545;-69
2022/03/11 06:00:26;;;;;;;4.30;2.57;;;7.40;99.90;7.70;101294.00;;;;5112255;28;20251;-69
2022/03/11 06:02:57;;;;;;;0.73;0.73;;;7.50;99.90;7.70;101291.00;;;;5096036;28;20650;-70
2022/03/11 06:05:26;;;;;;;2.50;2.30;;;7.60;99.90;7.60;101283.00;;;;5112962;28;20221;-70
2022/03/11 06:07:54;;;;;;;2.23;1.30;;;7.60;99.90;7.70;101291.00;;;;5112144;28;20194;-69
2022/03/11 06:10:27;;;;;;;0.57;0.57;;;7.60;99.90;7.80;101291.00;;;;5112849;28;20257;-70
2022/03/11 06:12:58;;;;;;;1.50;1.40;;;7.80;99.90;7.40;101292.00;;;;5096320;28;20192;-69
2022/03/11 06:15:29;;;;;;;0.47;0.47;;;7.70;99.90;8.00;101288.00;;;;5113969;28;20180;-69
2022/03/11 06:17:57;;;;;;;2.00;1.80;;;7.80;99.90;7.70;101278.00;;;;5112991;28;20169;-69
2022/03/11 06:20:25;;;;;;;1.80;1.57;;;7.70;99.90;7.60;101277.00;;;;5112641;28;20260;-70
2022/03/11 06:22:56;;;;;;;1.40;1.30;;;7.80;99.90;7.80;101225.00;;;;5112515;28;20179;-69
2022/03/11 06:25:25;;;;;;;0.30;0.30;;;7.70;99.90;8.10;101278.00;;;;5095475;28;20186;-70
2022/03/11 06:27:51;;;;;;;3.10;1.40;;;7.90;99.90;7.90;101280.00;;;;5113105;28;20191;-70
2022/03/11 06:30:17;;;;;;;1.23;1.03;;;7.90;99.90;8.00;101224.00;;;;5095573;28;20601;-70
2022/03/11 06:32:45;;;;;;;0.73;0.73;;;7.90;99.90;8.20;101277.00;;;;5112400;28;20256;-70
2022/03/11 06:35:15;;;;;;;1.90;1.10;;;8.00;99.90;8.10;101262.00;;;;5113626;28;20180;-69
2022/03/11 06:37:43;;;;;;;1.77;1.53;;;8.10;99.90;7.90;101268.00;;;;5112312;28;20183;-69
2022/03/11 06:40:12;;;;;;;1.53;1.30;;;8.00;99.90;7.90;101258.00;;;;5095422;28;20563;-69
2022/03/11 06:42:44;;;;;;;3.67;3.03;;;8.00;99.90;8.10;101217.00;;;;5112616;28;20243;-70
2022/03/11 06:45:11;;;;;;;2.20;2.10;;;8.10;99.90;8.40;101259.00;;;;5112677;28;20172;-69
2022/03/11 06:47:45;;;;;;;6.20;2.13;;;8.30;99.90;8.60;101254.00;;;;5112829;28;20276;-69
2022/03/11 06:50:14;;;;;;;4.67;3.17;;;8.50;99.90;8.50;101260.00;;;;5095450;28;20172;-69
2022/03/11 06:52:41;;;;;;;2.77;1.43;;;8.60;99.90;8.40;101221.00;;;;5095281;28;20205;-69
2022/03/11 06:55:08;;;;;;;2.17;1.83;;;8.60;99.90;8.50;101241.00;;;;5116563;28;20318;-69
2022/03/11 06:57:40;;;;;;;4.10;2.50;;;8.70;99.90;8.90;101261.00;;;;5116842;28;20172;-69
2022/03/11 07:00:11;;;;;;;3.43;3.10;;;8.90;99.90;9.30;101220.00;;;;5116364;28;20535;-69
2022/03/11 07:02:39;;;;;;;1.83;1.43;;;9.10;99.90;9.20;101248.00;;;;5116351;28;20266;-69
2022/03/11 07:05:31;;;;;;;2.60;1.97;;;9.30;99.90;9.40;101249.00;;;;5115863;28;20177;-69
2022/03/11 07:08:02;;;;;;;1.40;1.30;;;9.40;99.90;9.20;101252.00;;;;5099695;28;20182;-70
2022/03/11 07:10:30;;;;;;;4.53;2.73;;;9.40;99.90;9.60;101259.00;;;;5115981;28;20188;-70
2022/03/11 07:12:59;;;;;;;1.77;1.67;;;9.50;99.90;9.50;101205.00;;;;5116120;28;20211;-70
2022/03/11 07:15:30;;;;;;;2.23;1.90;;;9.70;99.90;10.00;101248.00;;;;5116367;28;20237;-70
2022/03/11 07:17:58;;;;;;;1.83;0.77;;;9.90;99.90;9.70;101255.00;;;;5116320;28;20183;-70
2022/03/11 07:20:30;;;;;;;3.33;2.30;;;9.90;99.90;9.80;101241.00;;;;5115638;28;20638;-71
2022/03/11 07:22:58;;;;;;;3.97;2.77;;;9.90;99.90;9.90;101250.00;;;;5099332;28;20183;-70
2022/03/11 07:25:29;;;;;;;1.67;1.23;;;10.00;99.90;10.30;101255.00;;;;5098745;28;20653;-70
2022/03/11 07:27:57;;;;;;;3.90;1.73;;;10.10;99.90;10.00;101249.00;;;;5115899;28;20179;-70
2022/03/11 07:30:28;;;;;;;3.00;1.80;;;10.10;99.90;9.60;101244.00;;;;5116194;28;20507;-70
2022/03/11 07:32:58;;;;;;;5.97;2.53;;;10.00;99.90;10.20;101238.00;;;;5116885;28;20215;-70
2022/03/11 07:35:27;;;;;;;9.00;5.33;;;10.10;99.90;10.00;101212.00;;;;5115665;28;20183;-70
2022/03/11 07:37:52;;;;;;;4.20;2.37;;;10.20;99.90;10.10;101238.00;;;;5098661;28;20521;-70
2022/03/11 07:40:21;;;;;;;1.80;1.33;;;10.30;99.90;10.70;101240.00;;;;5098682;28;20176;-70
2022/03/11 07:42:50;;;;;;;2.40;2.20;;;10.70;99.90;10.40;101242.00;;;;5099097;28;20184;-71
2022/03/11 07:45:18;;;;;;;2.00;1.33;;;10.60;99.90;11.00;101233.00;;;;5115659;28;20229;-70
2022/03/11 07:47:50;;;;;;;3.40;2.23;;;10.90;99.90;11.10;101227.00;;;;5116025;28;20177;-71
2022/03/11 07:50:18;;;;;;;3.80;2.47;;;11.20;99.90;11.70;101225.00;;;;5099238;28;20194;-70
2022/03/11 07:52:46;;;;;;;1.70;1.37;;;11.50;99.90;11.70;101203.00;;;;5098380;28;20201;-70
2022/03/11 07:55:12;;;;;;;2.20;2.00;;;11.70;99.90;11.50;101104.00;;;;5098326;28;20250;-71
2022/03/11 07:58:05;;;;;;;2.53;1.83;;;11.60;99.90;11.70;101195.00;;;;5098573;28;20221;-71
2022/03/11 08:00:31;;;;;;;3.03;2.83;;;11.80;99.90;11.40;101203.00;;;;5084205;28;20182;-71
2022/03/11 08:03:01;;;;;;;1.90;1.20;;;11.60;99.90;12.00;101206.00;;;;5097650;28;20626;-70
2022/03/11 08:05:30;;;;;;;3.33;2.57;;;11.80;99.90;12.00;101205.00;;;;5097684;28;20190;-71
2022/03/11 08:08:02;;;;;;;3.43;1.83;;;11.90;99.90;11.40;101213.00;;;;5115173;28;20626;-71
2022/03/11 08:10:29;;;;;;;5.37;4.07;;;11.80;99.90;11.70;101178.00;;;;5098645;28;20178;-71
2022/03/11 08:13:12;;;;;;;2.73;2.43;;;11.80;99.90;11.80;101169.00;;;;5116413;27;20540;-72
2022/03/11 08:15:43;;;;;;;3.57;3.27;;;11.80;99.90;11.70;101215.00;;;;5097797;28;20209;-72
2022/03/11 08:18:11;;;;;;;5.67;3.67;;;12.00;99.90;11.80;101175.00;;;;5114476;28;20170;-71
2022/03/11 08:20:37;;;;;;;3.80;2.77;;;12.00;99.90;12.20;101205.00;;;;5098041;28;20187;-71
2022/03/11 08:23:08;;;;;;;3.47;2.67;;;12.30;99.90;12.10;101206.00;;;;5114348;28;20289;-70
2022/03/11 08:25:38;;;;;;;2.27;2.07;;;12.30;99.90;12.60;101207.00;;;;5098161;28;20182;-70
2022/03/11 08:28:10;;;;;;;1.70;0.93;;;12.60;99.90;12.20;101226.00;;;;5114648;28;20179;-69
2022/03/11 08:30:42;;;;;;;2.97;2.50;;;12.60;99.90;12.10;101220.00;;;;5114688;28;20204;-69
2022/03/11 08:33:10;;;;;;;2.87;1.77;;;12.40;99.90;12.10;101225.00;;;;5114986;27;20634;-69
2022/03/11 08:35:38;;;;;;;3.73;3.10;;;12.40;99.90;12.20;101226.00;;;;5114612;28;20535;-69
2022/03/11 08:38:06;;;;;;;3.77;3.33;;;12.40;99.90;12.50;101214.00;;;;5115732;28;20177;-70
2022/03/11 08:40:35;;;;;;;5.83;3.67;;;12.60;99.90;12.40;101204.00;;;;5097486;28;20182;-70
2022/03/11 08:43:02;;;;;;;3.63;2.10;;;12.60;99.90;13.00;101193.00;;;;5097276;28;20219;-68
2022/03/11 08:45:28;;;;;;;0.57;0.57;;;12.90;99.90;13.30;101201.00;;;;5114926;28;20162;-70
2022/03/11 08:47:59;;;;;;;2.57;2.37;;;13.10;99.90;13.00;101196.00;;;;5097149;28;20233;-70
2022/03/11 08:50:25;;;;;;;2.33;1.83;;;13.10;99.90;12.70;101213.00;;;;5097744;28;20172;-71
2022/03/11 08:52:52;;;;;;;2.50;1.73;;;13.00;99.90;12.50;101223.00;;;;5097027;28;20211;-69
2022/03/11 08:55:18;;;;;;;2.43;1.87;;;12.90;99.90;12.60;101200.00;;;;5114172;28;20183;-69
2022/03/11 08:57:50;;;;;;;0.97;0.97;;;12.80;99.90;13.40;101199.00;;;;5113970;28;20704;-69
2022/03/11 09:00:20;;;;;;;4.37;2.50;;;13.20;99.90;13.90;101190.00;;;;5114000;28;20535;-70
2022/03/11 09:02:49;;;;;;;1.70;1.60;;;13.60;99.90;13.30;101206.00;;;;5113914;28;20188;-69
2022/03/11 09:05:18;;;;;;;1.33;1.30;;;13.60;99.90;13.60;101207.00;;;;5096853;28;20199;-69
2022/03/11 09:07:48;;;;;;;3.87;2.33;;;13.60;99.90;13.70;101196.00;;;;5113885;28;20179;-69
2022/03/11 09:10:18;;;;;;;2.30;1.40;;;13.60;99.90;13.50;101144.00;;;;5115093;28;20621;-69
2022/03/11 09:12:47;;;;;;;1.50;1.40;;;13.60;99.90;12.90;101217.00;;;;5114120;28;20196;-69
2022/03/11 09:15:14;;;;;;;5.40;4.17;;;13.40;99.90;13.40;101208.00;;;;5096471;28;20180;-69
2022/03/11 09:17:49;;;;;;;3.13;2.67;;;13.30;99.90;13.50;101193.00;;;;5113183;28;20188;-69
2022/03/11 09:20:20;;;;;;;3.17;2.13;;;13.60;99.90;13.50;101204.00;;;;5113557;28;20180;-69
2022/03/11 09:22:46;;;;;;;1.27;1.07;;;13.70;99.90;13.90;101193.00;;;;5114180;28;20160;-69
2022/03/11 09:25:13;;;;;;;2.27;2.17;;;13.90;99.90;14.60;101194.00;;;;5096827;28;20264;-69
2022/03/11 09:27:39;;;;;;;2.63;1.70;;;14.30;99.90;15.00;101185.00;;;;5113651;28;20230;-69
2022/03/11 09:30:08;;;;;;;3.63;2.77;;;14.70;99.90;14.50;101183.00;;;;5113562;28;20181;-69
2022/03/11 09:32:36;;;;;;;3.43;2.00;;;14.60;99.90;14.70;101161.00;;;;5113086;28;20220;-68
2022/03/11 09:35:02;;;;;;;2.50;1.63;;;14.60;99.90;14.80;101172.00;;;;5113125;28;20640;-70
2022/03/11 09:37:31;;;;;;;1.60;1.23;;;14.70;99.90;15.00;101183.00;;;;5113623;28;20205;-69
2022/03/11 09:40:03;;;;;;;2.43;2.33;;;14.70;99.90;14.60;101173.00;;;;5096365;28;20209;-69
2022/03/11 09:42:32;;;;;;;0.53;0.53;;;14.80;99.90;15.00;101165.00;;;;5113401;28;20182;-69
2022/03/11 09:45:01;;;;;;;1.63;1.53;;;14.80;99.90;14.80;101173.00;;;;5112776;28;20170;-69
2022/03/11 09:47:27;;;;;;;4.67;3.40;;;14.70;99.90;14.90;101157.00;;;;5113091;28;20200;-69
2022/03/11 09:49:56;;;;;;;3.47;2.40;;;14.80;99.90;14.40;101163.00;;;;5112914;28;20597;-69
2022/03/11 09:52:24;;;;;;;3.23;1.93;;;14.60;99.90;14.80;101160.00;;;;5113118;28;20824;-69
2022/03/11 09:54:55;;;;;;;3.30;2.20;;;14.60;99.90;14.60;101166.00;;;;5112973;28;20547;-69
2022/03/11 09:57:27;;;;;;;4.63;3.50;;;14.50;99.90;14.80;101149.00;;;;5096453;28;20181;-69
2022/03/11 09:59:55;;;;;;;4.53;2.73;;;14.80;99.90;15.30;101145.00;;;;5096348;28;20176;-69
2022/03/11 10:02:26;;;;;;;1.47;1.10;;;15.00;99.90;15.20;101138.00;;;;5112978;28;20194;-69
2022/03/11 10:05:01;;;;;;;5.33;3.40;;;15.20;99.90;14.90;101140.00;;;;5095775;28;20598;-69
2022/03/11 10:07:29;;;;;;;2.53;2.23;;;15.00;99.90;14.50;101146.00;;;;5113103;28;20248;-69
2022/03/11 10:09:59;;;;;;;2.97;1.50;;;14.90;99.90;15.30;101141.00;;;;5113262;28;20174;-69
2022/03/11 10:12:30;;;;;;;4.23;2.10;;;15.10;99.90;15.40;101116.00;;;;5095981;28;20676;-69
2022/03/11 10:15:01;;;;;;;7.23;3.00;;;15.40;99.90;15.00;101125.00;;;;5112380;28;20158;-68
2022/03/11 10:17:38;;;;;;;2.80;1.97;;;15.30;99.90;15.00;101135.00;;;;5095993;28;20182;-69
2022/03/11 10:20:13;;;;;;;5.13;3.07;;;14.90;99.90;15.10;101126.00;;;;5112538;28;20178;-69
2022/03/11 10:33:16;;;;;;;7.93;1.23;;;15.00;99.90;15.30;101066.00;;;;5007610;28;1337299;-69
2022/03/11 10:35:47;;;;;;;6.13;4.50;;;15.20;99.90;16.00;101099.00;;;;5013103;28;20183;-69
2022/03/11 10:38:26;;;;;;;2.10;1.53;;;15.60;99.90;15.60;101102.00;;;;5013131;28;20264;-69
2022/03/11 10:41:00;;;;;;;5.40;2.90;;;15.70;99.90;15.60;101124.00;;;;5013000;28;20182;-69
2022/03/11 10:43:33;;;;;;;1.93;1.77;;;15.60;99.90;15.80;101086.00;;;;5012882;28;20193;-70
2022/03/11 10:46:09;;;;;;;2.10;1.90;;;15.70;99.90;16.20;101101.00;;;;5012832;28;20185;-69
2022/03/11 10:48:53;;;;;;;3.90;2.03;;;16.00;99.90;15.80;101099.00;;;;5013356;28;20181;-69
2022/03/11 10:51:25;;;;;;;4.50;3.53;;;16.00;99.90;16.20;101102.00;;;;5012952;28;20277;-69
2022/03/11 10:53:57;;;;;;;4.20;3.03;;;16.10;99.90;16.60;101089.00;;;;5012916;28;20228;-69
2022/03/11 10:56:40;;;;;;;3.03;2.53;;;16.40;99.90;16.60;101080.00;;;;4996342;28;20176;-69
2022/03/11 10:59:21;;;;;;;2.17;2.07;;;16.60;99.90;16.70;101062.00;;;;5012932;28;20686;-69
2022/03/11 11:01:51;;;;;;;3.57;2.73;;;16.70;99.90;16.60;101092.00;;;;5012492;28;20639;-70
2022/03/11 11:04:21;;;;;;;3.30;2.13;;;16.90;99.90;17.00;101081.00;;;;5013004;28;20237;-69
2022/03/11 11:06:47;;;;;;;0.80;0.60;;;17.00;99.90;17.10;101073.00;;;;5012854;28;20182;-69
2022/03/11 11:09:17;;;;;;;4.20;1.67;;;17.00;99.90;17.30;101079.00;;;;4996402;28;20280;-70
2022/03/11 11:11:47;;;;;;;2.83;2.13;;;17.20;99.90;16.90;101076.00;;;;5012214;28;20206;-70
2022/03/11 11:14:13;;;;;;;0.60;0.60;;;17.10;99.90;16.40;101041.00;;;;5012896;28;20240;-69
2022/03/11 11:16:48;;;;;;;1.83;1.60;;;16.70;99.90;16.90;101089.00;;;;4995849;28;20184;-70
2022/03/11 11:19:17;;;;;;;3.20;1.90;;;16.70;99.90;16.70;101079.00;;;;5012379;28;20547;-70